Private Wetterstation Sandau
Wetterdaten: Dienstag, 30.10.2012
Datum Zeit Temp. A. Feuchte A. Luftdruck Regen Wind Richtung Richtung Taupunkt Windchill
30.10.2012 00:01 3,2 C 82 % 1006,6 hPa 0,0 l/m 9,7 km/h (2 Bft) S-SW 202 0,4 C 0,6 C
30.10.2012 00:06 3,2 C 82 % 1006,6 hPa 0,0 l/m 6,1 km/h (2 Bft) S-SO 157 0,4 C 1,6 C
30.10.2012 00:11 3,2 C 82 % 1006,6 hPa 0,0 l/m 4,0 km/h (1 Bft) S 180 0,4 C 3,2 C
30.10.2012 00:16 3,2 C 82 % 1006,3 hPa 0,0 l/m 9,7 km/h (2 Bft) S 180 0,4 C 0,6 C
30.10.2012 00:21 3,2 C 83 % 1006,3 hPa 0,0 l/m 6,1 km/h (2 Bft) SW 225 0,6 C 1,6 C
30.10.2012 00:26 3,3 C 83 % 1006,2 hPa 0,0 l/m 16,9 km/h (3 Bft) S-SW 202 0,7 C -0,6 C
30.10.2012 00:31 3,3 C 83 % 1006,2 hPa 0,0 l/m 4,0 km/h (1 Bft) SO 135 0,7 C 3,3 C
30.10.2012 00:36 3,3 C 83 % 1006,0 hPa 0,0 l/m 8,3 km/h (2 Bft) S-SO 157 0,7 C 1,1 C
30.10.2012 00:41 3,2 C 84 % 1006,1 hPa 0,0 l/m 10,1 km/h (2 Bft) SW 225 0,8 C 0,5 C
30.10.2012 00:46 3,2 C 84 % 1006,0 hPa 0,0 l/m 2,9 km/h (1 Bft) S-SO 157 0,8 C 3,2 C
30.10.2012 00:51 3,3 C 84 % 1006,0 hPa 0,0 l/m 2,5 km/h (1 Bft) SO 135 0,9 C 3,3 C
30.10.2012 00:56 3,3 C 84 % 1005,9 hPa 0,0 l/m 4,3 km/h (1 Bft) S-SO 157 0,9 C 3,3 C
30.10.2012 01:01 3,3 C 84 % 1005,9 hPa 0,0 l/m 12,6 km/h (3 Bft) W-SW 247 0,9 C 0,1 C
30.10.2012 01:06 3,3 C 84 % 1005,8 hPa 0,0 l/m 13,7 km/h (3 Bft) SW 225 0,9 C -0,1 C
30.10.2012 01:11 3,3 C 84 % 1005,7 hPa 0,0 l/m 9,7 km/h (2 Bft) S-SW 202 0,9 C 0,7 C
30.10.2012 01:16 3,3 C 85 % 1005,6 hPa 0,0 l/m 4,7 km/h (1 Bft) SO 135 1,0 C 2,3 C
30.10.2012 01:21 3,3 C 85 % 1005,8 hPa 0,0 l/m 10,8 km/h (2 Bft) S 180 1,0 C 0,4 C
30.10.2012 01:26 3,3 C 85 % 1005,5 hPa 0,0 l/m 7,2 km/h (2 Bft) S-SW 202 1,0 C 1,4 C
30.10.2012 01:31 3,3 C 85 % 1005,6 hPa 0,0 l/m 5,8 km/h (2 Bft) S 180 1,0 C 1,8 C
30.10.2012 01:36 3,3 C 85 % 1005,6 hPa 0,0 l/m 5,4 km/h (1 Bft) S 180 1,0 C 2,0 C
30.10.2012 01:41 3,4 C 85 % 1005,7 hPa 0,0 l/m 9,4 km/h (2 Bft) S-SO 157 1,1 C 0,9 C
30.10.2012 01:46 3,4 C 86 % 1005,6 hPa 0,0 l/m 6,5 km/h (2 Bft) S-SO 157 1,3 C 1,7 C
30.10.2012 01:51 3,4 C 86 % 1005,4 hPa 0,0 l/m 6,8 km/h (2 Bft) S-SW 202 1,3 C 1,6 C
30.10.2012 01:56 3,4 C 86 % 1005,2 hPa 0,0 l/m 7,2 km/h (2 Bft) S-SW 202 1,3 C 1,5 C
30.10.2012 02:01 3,4 C 86 % 1005,2 hPa 0,0 l/m 7,6 km/h (2 Bft) SW 225 1,3 C 1,4 C
30.10.2012 02:06 3,4 C 86 % 1005,1 hPa 0,0 l/m 10,4 km/h (2 Bft) S 180 1,3 C 0,7 C
30.10.2012 02:11 3,5 C 86 % 1005,1 hPa 0,0 l/m 9,7 km/h (2 Bft) S-SW 202 1,4 C 0,9 C
30.10.2012 02:16 3,5 C 86 % 1005,1 hPa 0,0 l/m 4,3 km/h (1 Bft) S-SW 202 1,4 C 3,5 C
30.10.2012 02:21 3,5 C 86 % 1005,0 hPa 0,0 l/m 5,4 km/h (1 Bft) SW 225 1,4 C 2,2 C
30.10.2012 02:26 3,5 C 86 % 1004,8 hPa 0,0 l/m 8,3 km/h (2 Bft) S 180 1,4 C 1,3 C
30.10.2012 02:31 3,5 C 86 % 1004,8 hPa 0,0 l/m 7,6 km/h (2 Bft) SW 225 1,4 C 1,5 C
30.10.2012 02:36 3,6 C 86 % 1004,8 hPa 0,0 l/m 6,5 km/h (2 Bft) SW 225 1,5 C 1,9 C
30.10.2012 02:41 3,6 C 86 % 1004,6 hPa 0,0 l/m 5,8 km/h (2 Bft) S 180 1,5 C 2,2 C
30.10.2012 02:46 3,6 C 86 % 1004,5 hPa 0,0 l/m 5,8 km/h (2 Bft) S-SW 202 1,5 C 2,2 C
30.10.2012 02:51 3,6 C 86 % 1004,5 hPa 0,0 l/m 3,6 km/h (1 Bft) S-SW 202 1,5 C 3,6 C
30.10.2012 02:56 3,6 C 86 % 1004,4 hPa 0,0 l/m 4,7 km/h (1 Bft) S-SW 202 1,5 C 2,6 C
30.10.2012 03:01 3,6 C 86 % 1004,2 hPa 0,0 l/m 1,1 km/h (1 Bft) S-SO 157 1,5 C 3,6 C
30.10.2012 03:06 3,5 C 86 % 1004,1 hPa 0,0 l/m 6,5 km/h (2 Bft) SW 225 1,4 C 1,8 C
30.10.2012 03:11 3,6 C 87 % 1004,0 hPa 0,0 l/m 7,6 km/h (2 Bft) S 180 1,6 C 1,6 C
30.10.2012 03:16 3,6 C 87 % 1004,1 hPa 0,0 l/m 10,4 km/h (2 Bft) W-SW 247 1,6 C 0,9 C
30.10.2012 03:21 3,5 C 87 % 1004,0 hPa 0,0 l/m 9,4 km/h (2 Bft) W-SW 247 1,5 C 1,0 C
30.10.2012 03:26 3,5 C 87 % 1003,9 hPa 0,0 l/m 8,3 km/h (2 Bft) S-SW 202 1,5 C 1,3 C
30.10.2012 03:31 3,5 C 87 % 1003,9 hPa 0,0 l/m 6,1 km/h (2 Bft) S 180 1,5 C 2,0 C
30.10.2012 03:36 3,5 C 87 % 1003,9 hPa 0,0 l/m 11,2 km/h (2 Bft) S-SW 202 1,5 C 0,6 C
30.10.2012 03:41 3,5 C 87 % 1003,9 hPa 0,0 l/m 11,9 km/h (2 Bft) SW 225 1,5 C 0,5 C
30.10.2012 03:46 3,5 C 87 % 1003,7 hPa 0,0 l/m 3,6 km/h (1 Bft) S-SO 157 1,5 C 3,5 C
30.10.2012 03:51 3,4 C 87 % 1003,7 hPa 0,0 l/m 6,1 km/h (2 Bft) SW 225 1,4 C 1,8 C
30.10.2012 03:56 3,4 C 88 % 1003,7 hPa 0,0 l/m 11,2 km/h (2 Bft) S 180 1,6 C 0,5 C
30.10.2012 04:01 3,4 C 88 % 1003,6 hPa 0,0 l/m 5,4 km/h (1 Bft) W 270 1,6 C 2,1 C
30.10.2012 04:06 3,4 C 88 % 1003,4 hPa 0,0 l/m 13,7 km/h (3 Bft) W-SW 247 1,6 C -0,0 C
30.10.2012 04:11 3,4 C 88 % 1003,4 hPa 0,0 l/m 6,1 km/h (2 Bft) S 180 1,6 C 1,8 C
30.10.2012 04:16 3,4 C 88 % 1003,4 hPa 0,0 l/m 9,4 km/h (2 Bft) S 180 1,6 C 0,9 C
30.10.2012 04:21 3,4 C 88 % 1003,3 hPa 0,5 l/m 3,6 km/h (1 Bft) S 180 1,6 C 3,4 C
30.10.2012 04:26 3,4 C 89 % 1003,2 hPa 0,0 l/m 5,0 km/h (1 Bft) S-SW 202 1,8 C 2,3 C
30.10.2012 04:31 3,4 C 89 % 1003,0 hPa 0,5 l/m 8,3 km/h (2 Bft) S-SO 157 1,8 C 1,2 C
30.10.2012 04:36 3,4 C 89 % 1003,1 hPa 0,0 l/m 13,7 km/h (3 Bft) SW 225 1,8 C -0,0 C
30.10.2012 04:41 3,4 C 89 % 1003,1 hPa 0,5 l/m 7,2 km/h (2 Bft) S-SW 202 1,8 C 1,5 C
30.10.2012 04:46 3,4 C 89 % 1002,9 hPa 0,0 l/m 6,1 km/h (2 Bft) S-SW 202 1,8 C 1,8 C
30.10.2012 04:51 3,4 C 89 % 1003,1 hPa 0,5 l/m 6,5 km/h (2 Bft) S-SW 202 1,8 C 1,7 C
30.10.2012 04:56 3,4 C 89 % 1002,9 hPa 0,5 l/m 14,0 km/h (3 Bft) SW 225 1,8 C -0,1 C
30.10.2012 05:01 3,4 C 89 % 1002,9 hPa 0,0 l/m 13,7 km/h (3 Bft) S 180 1,8 C -0,0 C
30.10.2012 05:06 3,4 C 89 % 1002,7 hPa 0,5 l/m 9,7 km/h (2 Bft) S-SW 202 1,8 C 0,8 C
30.10.2012 05:11 3,5 C 89 % 1002,7 hPa 0,5 l/m 4,3 km/h (1 Bft) S-SW 202 1,9 C 3,5 C
30.10.2012 05:16 3,5 C 89 % 1002,6 hPa 0,5 l/m 6,1 km/h (2 Bft) S 180 1,9 C 2,0 C
30.10.2012 05:21 3,4 C 89 % 1002,5 hPa 0,5 l/m 5,4 km/h (1 Bft) S-SW 202 1,8 C 2,1 C
30.10.2012 05:26 3,4 C 89 % 1002,5 hPa 0,0 l/m 4,7 km/h (1 Bft) S 180 1,8 C 2,4 C
30.10.2012 05:31 3,5 C 89 % 1002,4 hPa 0,5 l/m 3,2 km/h (1 Bft) S-SW 202 1,9 C 3,5 C
30.10.2012 05:36 3,5 C 90 % 1002,3 hPa 0,0 l/m 5,8 km/h (2 Bft) S 180 2,0 C 2,1 C
30.10.2012 05:41 3,5 C 90 % 1002,4 hPa 0,0 l/m 1,8 km/h (1 Bft) S-SW 202 2,0 C 3,5 C
30.10.2012 05:46 3,6 C 90 % 1002,3 hPa 0,5 l/m 10,1 km/h (2 Bft) SO 135 2,1 C 1,0 C
30.10.2012 05:51 3,6 C 90 % 1002,2 hPa 0,0 l/m 8,3 km/h (2 Bft) S-SW 202 2,1 C 1,4 C
30.10.2012 05:56 3,6 C 90 % 1002,1 hPa 0,5 l/m 12,6 km/h (3 Bft) S-SO 157 2,1 C 0,4 C
30.10.2012 06:01 3,6 C 90 % 1002,2 hPa 0,0 l/m 11,5 km/h (2 Bft) S-SW 202 2,1 C 0,7 C
30.10.2012 06:06 3,6 C 90 % 1002,2 hPa 0,0 l/m 7,6 km/h (2 Bft) SW 225 2,1 C 1,6 C
30.10.2012 06:11 3,6 C 90 % 1002,2 hPa 0,0 l/m 9,4 km/h (2 Bft) S 180 2,1 C 1,1 C
30.10.2012 06:16 3,6 C 90 % 1002,2 hPa 0,0 l/m 9,7 km/h (2 Bft) S 180 2,1 C 1,1 C
30.10.2012 06:21 3,6 C 90 % 1002,2 hPa 0,0 l/m 8,3 km/h (2 Bft) S-SO 157 2,1 C 1,4 C
30.10.2012 06:26 3,6 C 90 % 1002,2 hPa 0,0 l/m 12,2 km/h (2 Bft) SW 225 2,1 C 0,5 C
30.10.2012 06:31 3,6 C 90 % 1002,2 hPa 0,0 l/m 6,8 km/h (2 Bft) S-SW 202 2,1 C 1,8 C
30.10.2012 06:36 3,6 C 90 % 1002,2 hPa 0,0 l/m 7,6 km/h (2 Bft) S-SW 202 2,1 C 1,6 C
30.10.2012 06:41 3,6 C 90 % 1002,2 hPa 0,0 l/m 6,1 km/h (2 Bft) S 180 2,1 C 2,1 C
30.10.2012 06:46 3,6 C 90 % 1002,2 hPa 0,0 l/m 6,1 km/h (2 Bft) S-SW 202 2,1 C 2,1 C
30.10.2012 06:51 3,6 C 90 % 1002,1 hPa 0,0 l/m 7,6 km/h (2 Bft) SW 225 2,1 C 1,6 C
30.10.2012 06:56 3,6 C 90 % 1002,1 hPa 0,0 l/m 3,6 km/h (1 Bft) S 180 2,1 C 3,6 C
30.10.2012 07:01 3,6 C 90 % 1002,1 hPa 0,0 l/m 8,6 km/h (2 Bft) W-SW 247 2,1 C 1,3 C
30.10.2012 07:06 3,6 C 90 % 1002,2 hPa 0,0 l/m 7,9 km/h (2 Bft) W 270 2,1 C 1,5 C
30.10.2012 07:11 3,6 C 90 % 1002,1 hPa 0,0 l/m 10,4 km/h (2 Bft) S-SW 202 2,1 C 0,9 C
30.10.2012 07:16 3,7 C 90 % 1002,3 hPa 0,0 l/m 6,8 km/h (2 Bft) SW 225 2,2 C 2,0 C
30.10.2012 07:21 3,8 C 90 % 1002,2 hPa 0,0 l/m 5,0 km/h (1 Bft) SW 225 2,3 C 2,7 C
30.10.2012 07:26 3,8 C 91 % 1002,2 hPa 0,0 l/m 6,8 km/h (2 Bft) W-SW 247 2,5 C 2,1 C
30.10.2012 07:31 3,8 C 91 % 1002,2 hPa 0,0 l/m 7,2 km/h (2 Bft) SW 225 2,5 C 2,0 C
30.10.2012 07:36 3,8 C 91 % 1002,2 hPa 0,5 l/m 5,8 km/h (2 Bft) S-SW 202 2,5 C 2,4 C
30.10.2012 07:41 3,9 C 91 % 1002,3 hPa 0,0 l/m 4,0 km/h (1 Bft) S 180 2,6 C 3,9 C
30.10.2012 07:46 3,9 C 91 % 1002,1 hPa 0,0 l/m 3,2 km/h (1 Bft) S-SW 202 2,6 C 3,9 C
30.10.2012 07:51 3,9 C 91 % 1002,1 hPa 0,0 l/m 9,0 km/h (2 Bft) S-SO 157 2,6 C 1,6 C
30.10.2012 07:56 4,0 C 91 % 1002,1 hPa 0,0 l/m 8,6 km/h (2 Bft) S-SW 202 2,7 C 1,8 C
30.10.2012 08:01 4,1 C 91 % 1002,2 hPa 0,0 l/m 6,5 km/h (2 Bft) SW 225 2,8 C 2,5 C
30.10.2012 08:06 4,1 C 91 % 1002,2 hPa 0,0 l/m 14,8 km/h (3 Bft) W-SW 247 2,8 C 0,7 C
30.10.2012 08:11 4,1 C 91 % 1002,3 hPa 0,5 l/m 8,6 km/h (2 Bft) W-SW 247 2,8 C 1,9 C
30.10.2012 08:16 4,2 C 91 % 1002,1 hPa 0,0 l/m 3,6 km/h (1 Bft) S-SW 202 2,9 C 4,2 C
30.10.2012 08:21 4,2 C 91 % 1002,1 hPa 0,0 l/m 7,9 km/h (2 Bft) S 180 2,9 C 2,2 C
30.10.2012 08:26 4,2 C 91 % 1002,0 hPa 0,0 l/m 4,7 km/h (1 Bft) S 180 2,9 C 3,3 C
30.10.2012 08:31 4,2 C 91 % 1002,2 hPa 0,0 l/m 13,0 km/h (3 Bft) SW 225 2,9 C 1,1 C
30.10.2012 08:36 4,2 C 91 % 1002,1 hPa 0,0 l/m 8,6 km/h (2 Bft) W 270 2,9 C 2,0 C
30.10.2012 08:41 4,2 C 91 % 1002,1 hPa 0,0 l/m 7,6 km/h (2 Bft) S 180 2,9 C 2,3 C
30.10.2012 08:46 4,2 C 91 % 1002,2 hPa 0,0 l/m 15,8 km/h (3 Bft) SW 225 2,9 C 0,6 C
30.10.2012 08:51 4,3 C 91 % 1002,2 hPa 0,0 l/m 7,6 km/h (2 Bft) W-SW 247 3,0 C 2,4 C
30.10.2012 08:56 4,3 C 91 % 1002,0 hPa 0,0 l/m 11,9 km/h (2 Bft) S-SW 202 3,0 C 1,4 C
30.10.2012 09:01 4,3 C 91 % 1002,2 hPa 0,0 l/m 7,2 km/h (2 Bft) S-SW 202 3,0 C 2,5 C
30.10.2012 09:06 4,4 C 91 % 1002,1 hPa 0,0 l/m 2,5 km/h (1 Bft) S-SW 202 3,1 C 4,4 C
30.10.2012 09:11 4,4 C 91 % 1002,1 hPa 0,0 l/m 7,9 km/h (2 Bft) S-SW 202 3,1 C 2,5 C
30.10.2012 09:16 4,4 C 91 % 1001,9 hPa 0,0 l/m 4,3 km/h (1 Bft) W-SW 247 3,1 C 4,4 C
30.10.2012 09:21 4,4 C 91 % 1002,1 hPa 0,5 l/m 8,6 km/h (2 Bft) S-SW 202 3,1 C 2,3 C
30.10.2012 09:26 4,4 C 91 % 1002,1 hPa 0,0 l/m 5,4 km/h (1 Bft) W-SW 247 3,1 C 3,2 C
30.10.2012 09:31 4,4 C 91 % 1002,2 hPa 0,0 l/m 5,4 km/h (1 Bft) S 180 3,1 C 3,2 C
30.10.2012 09:36 4,4 C 91 % 1002,0 hPa 0,0 l/m 7,2 km/h (2 Bft) W-SW 247 3,1 C 2,7 C
30.10.2012 09:41 4,4 C 91 % 1002,0 hPa 0,0 l/m 9,7 km/h (2 Bft) W-SW 247 3,1 C 2,0 C
30.10.2012 09:46 4,5 C 91 % 1002,1 hPa 0,0 l/m 7,2 km/h (2 Bft) W-SW 247 3,2 C 2,8 C
30.10.2012 09:51 4,5 C 91 % 1002,0 hPa 0,0 l/m 7,2 km/h (2 Bft) W-SW 247 3,2 C 2,8 C
30.10.2012 09:56 4,5 C 91 % 1002,1 hPa 0,0 l/m 6,5 km/h (2 Bft) S-SW 202 3,2 C 3,0 C
30.10.2012 10:01 4,5 C 91 % 1002,0 hPa 0,0 l/m 5,0 km/h (1 Bft) SW 225 3,2 C 3,5 C
30.10.2012 10:06 4,6 C 91 % 1002,1 hPa 0,0 l/m 2,9 km/h (1 Bft) S-SW 202 3,3 C 4,6 C
30.10.2012 10:11 4,7 C 91 % 1002,2 hPa 0,0 l/m 7,2 km/h (2 Bft) W-SW 247 3,4 C 3,0 C
30.10.2012 10:16 4,7 C 91 % 1002,2 hPa 0,0 l/m 7,2 km/h (2 Bft) SW 225 3,4 C 3,0 C
30.10.2012 10:21 4,8 C 91 % 1002,3 hPa 0,0 l/m 6,1 km/h (2 Bft) SW 225 3,5 C 3,5 C
30.10.2012 10:26 4,9 C 91 % 1002,2 hPa 0,0 l/m 6,8 km/h (2 Bft) W-SW 247 3,6 C 3,4 C
30.10.2012 10:31 4,9 C 91 % 1002,2 hPa 0,0 l/m 3,2 km/h (1 Bft) W-SW 247 3,6 C 4,9 C
30.10.2012 10:36 4,9 C 91 % 1002,2 hPa 0,0 l/m 3,6 km/h (1 Bft) W 270 3,6 C 4,9 C
30.10.2012 10:41 5,0 C 91 % 1002,3 hPa 0,5 l/m 8,3 km/h (2 Bft) SW 225 3,7 C 3,1 C
30.10.2012 10:46 5,0 C 91 % 1002,3 hPa 0,0 l/m 7,6 km/h (2 Bft) W-SW 247 3,7 C 3,2 C
30.10.2012 10:51 5,0 C 91 % 1002,3 hPa 0,0 l/m 3,6 km/h (1 Bft) W-SW 247 3,7 C 5,0 C
30.10.2012 10:56 5,1 C 91 % 1002,3 hPa 0,0 l/m 6,5 km/h (2 Bft) W-SW 247 3,8 C 3,7 C
30.10.2012 11:01 5,1 C 92 % 1002,3 hPa 0,0 l/m 4,0 km/h (1 Bft) W-SW 247 3,9 C 5,1 C
30.10.2012 11:06 5,1 C 92 % 1002,2 hPa 0,0 l/m 4,3 km/h (1 Bft) S-SW 202 3,9 C 5,1 C
30.10.2012 11:11 5,2 C 92 % 1002,2 hPa 0,0 l/m 7,2 km/h (2 Bft) W-SW 247 4,0 C 3,6 C
30.10.2012 11:16 5,3 C 92 % 1002,2 hPa 0,0 l/m 5,8 km/h (2 Bft) W 270 4,1 C 4,1 C
30.10.2012 11:21 5,3 C 92 % 1002,2 hPa 0,0 l/m 10,8 km/h (2 Bft) W 270 4,1 C 2,9 C
30.10.2012 11:26 5,4 C 92 % 1002,2 hPa 0,0 l/m 7,9 km/h (2 Bft) W-SW 247 4,2 C 3,6 C
30.10.2012 11:31 5,4 C 92 % 1002,2 hPa 0,0 l/m 7,6 km/h (2 Bft) W-SW 247 4,2 C 3,7 C
30.10.2012 11:36 5,4 C 92 % 1002,2 hPa 0,0 l/m 0,0 km/h (0 Bft) W-SW 247 4,2 C 5,4 C
30.10.2012 11:41 5,5 C 92 % 1002,1 hPa 0,0 l/m 1,4 km/h (1 Bft) W 270 4,3 C 5,5 C
30.10.2012 11:46 5,5 C 92 % 1001,9 hPa 0,0 l/m 2,2 km/h (1 Bft) W-SW 247 4,3 C 5,5 C
30.10.2012 11:51 5,6 C 92 % 1001,9 hPa 0,0 l/m 0,0 km/h (0 Bft) NW 315 4,4 C 5,6 C
30.10.2012 11:56 5,6 C 92 % 1002,0 hPa 0,0 l/m 3,6 km/h (1 Bft) W 270 4,4 C 5,6 C
30.10.2012 12:01 5,8 C 92 % 1002,0 hPa 0,0 l/m 2,9 km/h (1 Bft) W-NW 292 4,6 C 5,8 C
30.10.2012 12:06 5,8 C 92 % 1002,0 hPa 0,0 l/m 2,9 km/h (1 Bft) W-SW 247 4,6 C 5,8 C
30.10.2012 12:11 5,9 C 92 % 1001,9 hPa 0,0 l/m 6,8 km/h (2 Bft) W 270 4,7 C 4,5 C
30.10.2012 12:16 5,9 C 92 % 1002,1 hPa 0,0 l/m 2,5 km/h (1 Bft) W 270 4,7 C 5,9 C
30.10.2012 12:21 6,1 C 92 % 1002,1 hPa 0,0 l/m 4,3 km/h (1 Bft) W-SW 247 4,9 C 6,1 C
30.10.2012 12:26 6,1 C 92 % 1002,0 hPa 0,0 l/m 2,2 km/h (1 Bft) W-SW 247 4,9 C 6,1 C
30.10.2012 12:31 6,3 C 92 % 1002,1 hPa 0,0 l/m 2,9 km/h (1 Bft) W-SW 247 5,1 C 6,3 C
30.10.2012 12:36 6,4 C 92 % 1002,1 hPa 0,0 l/m 3,2 km/h (1 Bft) W 270 5,2 C 6,4 C
30.10.2012 12:41 6,4 C 92 % 1002,1 hPa 0,0 l/m 4,0 km/h (1 Bft) W 270 5,2 C 6,4 C
30.10.2012 12:46 6,5 C 92 % 1002,2 hPa 0,0 l/m 2,2 km/h (1 Bft) W-NW 292 5,3 C 6,5 C
30.10.2012 12:51 6,5 C 92 % 1002,2 hPa 0,0 l/m 2,5 km/h (1 Bft) W 270 5,3 C 6,5 C
30.10.2012 12:56 6,6 C 92 % 1002,2 hPa 0,0 l/m 2,2 km/h (1 Bft) W 270 5,4 C 6,6 C
30.10.2012 13:01 6,6 C 91 % 1002,2 hPa 0,0 l/m 0,0 km/h (0 Bft) W 270 5,2 C 6,6 C
30.10.2012 13:06 6,8 C 91 % 1002,3 hPa 0,0 l/m 2,2 km/h (1 Bft) W 270 5,4 C 6,8 C
30.10.2012 13:11 6,9 C 91 % 1002,2 hPa 0,0 l/m 0,0 km/h (0 Bft) W-NW 292 5,5 C 6,9 C
30.10.2012 13:16 7,0 C 91 % 1002,4 hPa 0,0 l/m 0,0 km/h (0 Bft) W 270 5,6 C 7,0 C
30.10.2012 13:21 7,1 C 91 % 1002,3 hPa 0,0 l/m 2,2 km/h (1 Bft) NW 315 5,7 C 7,1 C
30.10.2012 13:26 7,3 C 90 % 1002,3 hPa 0,0 l/m 1,8 km/h (1 Bft) W 270 5,8 C 7,3 C
30.10.2012 13:31 7,3 C 90 % 1002,3 hPa 0,0 l/m 0,0 km/h (0 Bft) W 270 5,8 C 7,3 C
30.10.2012 13:36 7,4 C 89 % 1002,2 hPa 0,0 l/m 0,0 km/h (0 Bft) NW 315 5,7 C 7,4 C
30.10.2012 13:41 7,6 C 89 % 1002,1 hPa 0,0 l/m 0,0 km/h (0 Bft) NW 315 5,9 C 7,6 C
30.10.2012 13:46 7,9 C 88 % 1002,2 hPa 0,0 l/m 2,2 km/h (1 Bft) W 270 6,0 C 7,9 C
30.10.2012 13:51 7,9 C 88 % 1002,2 hPa 0,0 l/m 4,0 km/h (1 Bft) W-NW 292 6,0 C 7,9 C
30.10.2012 13:56 7,9 C 87 % 1002,2 hPa 0,0 l/m 0,0 km/h (0 Bft) W-NW 292 5,9 C 7,9 C
30.10.2012 14:01 8,1 C 87 % 1002,2 hPa 0,0 l/m 3,2 km/h (1 Bft) W 270 6,1 C 8,1 C
30.10.2012 14:06 8,1 C 86 % 1002,2 hPa 0,0 l/m 2,9 km/h (1 Bft) W 270 5,9 C 8,1 C
30.10.2012 14:11 7,9 C 86 % 1002,2 hPa 0,0 l/m 1,8 km/h (1 Bft) W-NW 292 5,7 C 7,9 C
30.10.2012 14:16 8,0 C 85 % 1002,2 hPa 0,0 l/m 0,0 km/h (0 Bft) N-NW 337 5,6 C 8,0 C
30.10.2012 14:21 7,9 C 85 % 1002,2 hPa 0,0 l/m 2,9 km/h (1 Bft) NW 315 5,5 C 7,9 C
30.10.2012 14:26 8,1 C 85 % 1002,3 hPa 0,0 l/m 4,3 km/h (1 Bft) W 270 5,7 C 8,1 C
30.10.2012 14:31 8,1 C 84 % 1002,3 hPa 0,0 l/m 4,7 km/h (1 Bft) NW 315 5,6 C 7,7 C
30.10.2012 14:36 7,9 C 84 % 1002,1 hPa 0,0 l/m 1,1 km/h (1 Bft) W 270 5,4 C 7,9 C
30.10.2012 14:41 7,9 C 83 % 1002,1 hPa 0,0 l/m 4,0 km/h (1 Bft) W 270 5,2 C 7,9 C
30.10.2012 14:46 8,1 C 83 % 1002,0 hPa 0,0 l/m 5,4 km/h (1 Bft) W 270 5,4 C 7,5 C
30.10.2012 14:51 8,1 C 84 % 1002,3 hPa 0,0 l/m 1,8 km/h (1 Bft) W 270 5,6 C 8,1 C
30.10.2012 14:56 8,1 C 84 % 1002,4 hPa 0,0 l/m 10,1 km/h (2 Bft) W 270 5,6 C 6,3 C
30.10.2012 15:01 8,1 C 83 % 1002,3 hPa 0,0 l/m 3,6 km/h (1 Bft) W 270 5,4 C 8,1 C
30.10.2012 15:06 8,3 C 83 % 1002,3 hPa 0,0 l/m 6,5 km/h (2 Bft) W 270 5,6 C 7,4 C
30.10.2012 15:11 8,5 C 83 % 1002,3 hPa 0,0 l/m 2,2 km/h (1 Bft) W-SW 247 5,8 C 8,5 C
30.10.2012 15:16 8,7 C 83 % 1002,3 hPa 0,0 l/m 2,5 km/h (1 Bft) W 270 6,0 C 8,7 C
30.10.2012 15:21 8,9 C 82 % 1002,3 hPa 0,0 l/m 4,7 km/h (1 Bft) W-SW 247 6,0 C 8,6 C
30.10.2012 15:26 8,8 C 82 % 1002,3 hPa 0,0 l/m 4,7 km/h (1 Bft) W-SW 247 5,9 C 8,5 C
30.10.2012 15:31 8,6 C 82 % 1002,3 hPa 0,0 l/m 3,6 km/h (1 Bft) W 270 5,7 C 8,6 C
30.10.2012 15:36 8,4 C 82 % 1002,4 hPa 0,0 l/m 6,5 km/h (2 Bft) W 270 5,5 C 7,5 C
30.10.2012 15:41 8,3 C 82 % 1002,4 hPa 0,0 l/m 2,2 km/h (1 Bft) W 270 5,4 C 8,3 C
30.10.2012 15:46 8,1 C 83 % 1002,6 hPa 0,0 l/m 8,6 km/h (2 Bft) N 360 5,4 C 6,6 C
30.10.2012 15:51 7,3 C 78 % 1002,8 hPa 0,0 l/m 9,4 km/h (2 Bft) N 360 3,7 C 5,5 C
30.10.2012 15:56 6,8 C 79 % 1002,7 hPa 0,0 l/m 5,4 km/h (1 Bft) N-NO 22 3,4 C 6,0 C
30.10.2012 16:01 6,6 C 80 % 1002,7 hPa 0,0 l/m 4,3 km/h (1 Bft) N-NO 22 3,4 C 6,6 C
30.10.2012 16:06 6,3 C 81 % 1002,7 hPa 0,0 l/m 0,0 km/h (0 Bft) N-NO 22 3,3 C 6,3 C
30.10.2012 16:11 6,2 C 82 % 1002,7 hPa 0,0 l/m 0,0 km/h (0 Bft) N-NO 22 3,4 C 6,2 C
30.10.2012 16:16 6,1 C 83 % 1002,6 hPa 0,0 l/m 0,0 km/h (0 Bft) N-NO 22 3,4 C 6,1 C
30.10.2012 16:21 6,1 C 83 % 1002,7 hPa 0,0 l/m 0,0 km/h (0 Bft) N-NO 22 3,4 C 6,1 C
30.10.2012 16:26 6,1 C 83 % 1002,6 hPa 0,0 l/m 0,0 km/h (0 Bft) N-NO 22 3,4 C 6,1 C
30.10.2012 16:31 5,9 C 83 % 1002,7 hPa 0,0 l/m 0,0 km/h (0 Bft) N-NO 22 3,2 C 5,9 C
30.10.2012 16:36 5,9 C 83 % 1002,7 hPa 0,0 l/m 0,0 km/h (0 Bft) N-NO 22 3,2 C 5,9 C
30.10.2012 16:41 5,8 C 84 % 1002,6 hPa 0,0 l/m 0,0 km/h (0 Bft) N-NO 22 3,3 C 5,8 C
30.10.2012 16:46 5,6 C 84 % 1002,7 hPa 0,0 l/m 0,0 km/h (0 Bft) N-NO 22 3,1 C 5,6 C
30.10.2012 16:51 5,4 C 84 % 1003,0 hPa 0,0 l/m 0,0 km/h (0 Bft) N-NO 22 2,9 C 5,4 C
30.10.2012 16:56 5,3 C 84 % 1002,9 hPa 0,0 l/m 0,0 km/h (0 Bft) N-NO 22 2,8 C 5,3 C
30.10.2012 17:01 5,1 C 84 % 1003,0 hPa 0,0 l/m 0,0 km/h (0 Bft) N-NO 22 2,6 C 5,1 C
30.10.2012 17:06 4,9 C 84 % 1002,9 hPa 0,0 l/m 0,0 km/h (0 Bft) N-NO 22 2,4 C 4,9 C
30.10.2012 17:11 4,6 C 84 % 1003,0 hPa 0,0 l/m 0,0 km/h (0 Bft) N-NO 22 2,1 C 4,6 C
30.10.2012 17:16 4,4 C 84 % 1003,1 hPa 0,0 l/m 0,0 km/h (0 Bft) N-NO 22 1,9 C 4,4 C
30.10.2012 17:21 4,3 C 85 % 1003,0 hPa 0,0 l/m 0,0 km/h (0 Bft) N-NO 22 2,0 C 4,3 C
30.10.2012 17:26 4,1 C 85 % 1003,2 hPa 0,0 l/m 0,0 km/h (0 Bft) N-NO 22 1,8 C 4,1 C
30.10.2012 17:31 3,9 C 85 % 1003,2 hPa 0,0 l/m 0,0 km/h (0 Bft) N-NO 22 1,6 C 3,9 C
30.10.2012 17:36 3,8 C 85 % 1003,2 hPa 0,0 l/m 0,0 km/h (0 Bft) N-NO 22 1,5 C 3,8 C
30.10.2012 17:41 3,6 C 85 % 1003,3 hPa 0,0 l/m 0,0 km/h (0 Bft) N-NO 22 1,3 C 3,6 C
30.10.2012 17:46 3,5 C 85 % 1003,3 hPa 0,0 l/m 1,4 km/h (1 Bft) N-NO 22 1,2 C 3,5 C
30.10.2012 17:51 3,3 C 86 % 1003,3 hPa 0,0 l/m 0,0 km/h (0 Bft) N-NO 22 1,2 C 3,3 C
30.10.2012 17:56 3,2 C 86 % 1003,4 hPa 0,0 l/m 2,2 km/h (1 Bft) N-NO 22 1,1 C 3,2 C
30.10.2012 18:01 3,1 C 86 % 1003,4 hPa 0,0 l/m 1,8 km/h (1 Bft) S-SW 202 1,0 C 3,1 C
30.10.2012 18:06 3,0 C 86 % 1003,5 hPa 0,0 l/m 2,5 km/h (1 Bft) S 180 0,9 C 3,0 C
30.10.2012 18:11 2,9 C 87 % 1003,4 hPa 0,0 l/m 0,0 km/h (0 Bft) S 180 1,0 C 2,9 C
30.10.2012 18:16 2,9 C 87 % 1003,5 hPa 0,0 l/m 0,0 km/h (0 Bft) S 180 1,0 C 2,9 C
30.10.2012 18:21 2,9 C 87 % 1003,5 hPa 0,0 l/m 2,5 km/h (1 Bft) S 180 1,0 C 2,9 C
30.10.2012 18:26 3,0 C 87 % 1003,6 hPa 0,0 l/m 1,1 km/h (1 Bft) S 180 1,1 C 3,0 C
30.10.2012 18:31 3,1 C 87 % 1003,6 hPa 0,0 l/m 1,4 km/h (1 Bft) S 180 1,2 C 3,1 C
30.10.2012 18:36 3,1 C 87 % 1003,5 hPa 0,0 l/m 1,1 km/h (1 Bft) S 180 1,2 C 3,1 C
30.10.2012 18:41 3,2 C 88 % 1003,7 hPa 0,0 l/m 1,8 km/h (1 Bft) S-SO 157 1,4 C 3,2 C
30.10.2012 18:46 3,3 C 88 % 1003,8 hPa 0,0 l/m 0,0 km/h (0 Bft) S-SO 157 1,5 C 3,3 C
30.10.2012 18:51 3,5 C 88 % 1003,5 hPa 0,0 l/m 2,2 km/h (1 Bft) S-SO 157 1,7 C 3,5 C
30.10.2012 18:56 3,6 C 88 % 1003,6 hPa 0,0 l/m 3,6 km/h (1 Bft) S 180 1,8 C 3,6 C
30.10.2012 19:01 3,8 C 89 % 1003,7 hPa 0,0 l/m 1,4 km/h (1 Bft) S 180 2,2 C 3,8 C
30.10.2012 19:06 3,9 C 89 % 1003,7 hPa 0,0 l/m 1,8 km/h (1 Bft) S 180 2,3 C 3,9 C
30.10.2012 19:11 3,9 C 89 % 1003,6 hPa 0,0 l/m 1,8 km/h (1 Bft) S 180 2,3 C 3,9 C
30.10.2012 19:16 4,1 C 89 % 1003,6 hPa 0,0 l/m 2,5 km/h (1 Bft) S 180 2,5 C 4,1 C
30.10.2012 19:21 4,1 C 89 % 1003,7 hPa 0,0 l/m 0,0 km/h (0 Bft) S 180 2,5 C 4,1 C
30.10.2012 19:26 4,1 C 89 % 1003,8 hPa 0,0 l/m 2,5 km/h (1 Bft) S 180 2,5 C 4,1 C
30.10.2012 19:31 4,1 C 90 % 1003,9 hPa 0,0 l/m 0,0 km/h (0 Bft) S 180 2,6 C 4,1 C
30.10.2012 19:36 4,2 C 90 % 1004,0 hPa 0,0 l/m 0,0 km/h (0 Bft) S 180 2,7 C 4,2 C
30.10.2012 19:41 4,2 C 90 % 1004,0 hPa 0,0 l/m 5,0 km/h (1 Bft) S 180 2,7 C 3,2 C
30.10.2012 19:46 4,1 C 90 % 1003,8 hPa 0,0 l/m 0,0 km/h (0 Bft) S-SW 202 2,6 C 4,1 C
30.10.2012 19:51 4,1 C 90 % 1003,8 hPa 0,0 l/m 0,0 km/h (0 Bft) S-SW 202 2,6 C 4,1 C
30.10.2012 19:56 4,1 C 90 % 1003,9 hPa 0,0 l/m 3,6 km/h (1 Bft) S-SW 202 2,6 C 4,1 C
30.10.2012 20:01 4,1 C 90 % 1003,9 hPa 0,0 l/m 1,4 km/h (1 Bft) S 180 2,6 C 4,1 C
30.10.2012 20:06 3,9 C 90 % 1003,8 hPa 0,0 l/m 0,0 km/h (0 Bft) S 180 2,4 C 3,9 C
30.10.2012 20:11 3,9 C 90 % 1003,8 hPa 0,0 l/m 0,0 km/h (0 Bft) S 180 2,4 C 3,9 C
30.10.2012 20:16 3,9 C 90 % 1003,9 hPa 0,0 l/m 0,0 km/h (0 Bft) S 180 2,4 C 3,9 C
30.10.2012 20:21 3,9 C 90 % 1003,9 hPa 0,0 l/m 0,0 km/h (0 Bft) S 180 2,4 C 3,9 C
30.10.2012 20:26 3,8 C 90 % 1004,0 hPa 0,0 l/m 1,8 km/h (1 Bft) S 180 2,3 C 3,8 C
30.10.2012 20:31 3,8 C 90 % 1004,0 hPa 0,0 l/m 0,0 km/h (0 Bft) S 180 2,3 C 3,8 C
30.10.2012 20:36 3,8 C 90 % 1004,0 hPa 0,0 l/m 0,0 km/h (0 Bft) S 180 2,3 C 3,8 C
30.10.2012 20:41 3,8 C 90 % 1004,1 hPa 0,0 l/m 0,0 km/h (0 Bft) S 180 2,3 C 3,8 C
30.10.2012 20:46 3,6 C 90 % 1004,1 hPa 0,0 l/m 1,1 km/h (1 Bft) S 180 2,1 C 3,6 C
30.10.2012 20:51 3,5 C 90 % 1004,2 hPa 0,0 l/m 2,2 km/h (1 Bft) S 180 2,0 C 3,5 C
30.10.2012 20:56 3,3 C 90 % 1004,2 hPa 0,0 l/m 3,2 km/h (1 Bft) W-SW 247 1,8 C 3,3 C
30.10.2012 21:01 3,3 C 90 % 1004,3 hPa 0,0 l/m 0,0 km/h (0 Bft) W-SW 247 1,8 C 3,3 C
30.10.2012 21:06 3,3 C 90 % 1004,4 hPa 0,0 l/m 2,2 km/h (1 Bft) W-SW 247 1,8 C 3,3 C
30.10.2012 21:11 3,2 C 90 % 1004,2 hPa 0,0 l/m 0,0 km/h (0 Bft) SW 225 1,7 C 3,2 C
30.10.2012 21:16 3,1 C 90 % 1004,2 hPa 0,0 l/m 0,0 km/h (0 Bft) SW 225 1,6 C 3,1 C
30.10.2012 21:21 3,0 C 90 % 1004,3 hPa 0,0 l/m 0,0 km/h (0 Bft) SW 225 1,5 C 3,0 C
30.10.2012 21:26 2,9 C 90 % 1004,3 hPa 0,0 l/m 0,0 km/h (0 Bft) SW 225 1,4 C 2,9 C
30.10.2012 21:31 2,7 C 90 % 1004,2 hPa 0,0 l/m 1,8 km/h (1 Bft) SW 225 1,2 C 2,7 C
30.10.2012 21:36 2,5 C 90 % 1004,3 hPa 0,0 l/m 0,0 km/h (0 Bft) SW 225 1,0 C 2,5 C
30.10.2012 21:41 2,4 C 90 % 1004,4 hPa 0,0 l/m 0,0 km/h (0 Bft) SW 225 0,9 C 2,4 C
30.10.2012 21:46 2,3 C 90 % 1004,4 hPa 0,0 l/m 0,0 km/h (0 Bft) SW 225 0,8 C 2,3 C
30.10.2012 21:51 2,3 C 90 % 1004,3 hPa 0,0 l/m 0,0 km/h (0 Bft) SW 225 0,8 C 2,3 C
30.10.2012 21:56 2,3 C 90 % 1004,4 hPa 0,0 l/m 0,0 km/h (0 Bft) S-SW 202 0,8 C 2,3 C
30.10.2012 22:01 2,2 C 90 % 1004,3 hPa 0,0 l/m 1,4 km/h (1 Bft) S-SW 202 0,7 C 2,2 C
30.10.2012 22:06 2,1 C 90 % 1004,3 hPa 0,0 l/m 5,0 km/h (1 Bft) S-SW 202 0,6 C 0,8 C
30.10.2012 22:11 1,9 C 90 % 1004,4 hPa 0,0 l/m 1,1 km/h (1 Bft) S-SW 202 0,4 C 1,9 C
30.10.2012 22:16 1,9 C 90 % 1004,2 hPa 0,0 l/m 0,0 km/h (0 Bft) S-SW 202 0,4 C 1,9 C
30.10.2012 22:21 1,9 C 90 % 1004,2 hPa 0,0 l/m 0,0 km/h (0 Bft) S-SW 202 0,4 C 1,9 C
30.10.2012 22:26 1,9 C 90 % 1004,3 hPa 0,0 l/m 3,2 km/h (1 Bft) S-SW 202 0,4 C 1,9 C
30.10.2012 22:31 1,8 C 90 % 1004,3 hPa 0,0 l/m 2,5 km/h (1 Bft) S-SW 202 0,3 C 1,8 C
30.10.2012 22:36 1,8 C 90 % 1004,4 hPa 0,0 l/m 3,2 km/h (1 Bft) S 180 0,3 C 1,8 C
30.10.2012 22:41 1,8 C 90 % 1004,4 hPa 0,0 l/m 3,2 km/h (1 Bft) S-SW 202 0,3 C 1,8 C
30.10.2012 22:46 1,8 C 90 % 1004,3 hPa 0,0 l/m 0,0 km/h (0 Bft) S-SW 202 0,3 C 1,8 C
30.10.2012 22:51 1,9 C 90 % 1004,4 hPa 0,0 l/m 2,5 km/h (1 Bft) S-SW 202 0,4 C 1,9 C
30.10.2012 22:56 1,8 C 90 % 1004,4 hPa 0,0 l/m 4,3 km/h (1 Bft) S-SW 202 0,3 C 1,8 C
30.10.2012 23:01 1,8 C 91 % 1004,4 hPa 0,0 l/m 5,0 km/h (1 Bft) S-SW 202 0,5 C 0,5 C
30.10.2012 23:06 1,8 C 91 % 1004,4 hPa 0,0 l/m 4,0 km/h (1 Bft) S-SW 202 0,5 C 1,8 C
30.10.2012 23:11 1,8 C 91 % 1004,2 hPa 0,0 l/m 2,2 km/h (1 Bft) S-SW 202 0,5 C 1,8 C
30.10.2012 23:16 1,8 C 91 % 1004,4 hPa 0,0 l/m 3,2 km/h (1 Bft) S-SW 202 0,5 C 1,8 C
30.10.2012 23:21 1,8 C 91 % 1004,4 hPa 0,0 l/m 0,0 km/h (0 Bft) S 180 0,5 C 1,8 C
30.10.2012 23:26 1,6 C 91 % 1004,3 hPa 0,0 l/m 4,0 km/h (1 Bft) S-SW 202 0,3 C 1,6 C
30.10.2012 23:31 1,6 C 91 % 1004,4 hPa 0,0 l/m 0,0 km/h (0 Bft) S-SW 202 0,3 C 1,6 C
30.10.2012 23:36 1,6 C 91 % 1004,5 hPa 0,0 l/m 4,0 km/h (1 Bft) S-SW 202 0,3 C 1,6 C
30.10.2012 23:41 1,5 C 91 % 1004,5 hPa 0,0 l/m 6,1 km/h (2 Bft) SW 225 0,2 C -0,3 C
30.10.2012 23:46 1,5 C 91 % 1004,2 hPa 0,0 l/m 2,2 km/h (1 Bft) S 180 0,2 C 1,5 C
30.10.2012 23:51 1,5 C 91 % 1004,4 hPa 0,0 l/m 0,0 km/h (0 Bft) S-SW 202 0,2 C 1,5 C
30.10.2012 23:56 1,6 C 91 % 1004,4 hPa 0,0 l/m 0,0 km/h (0 Bft) S-SW 202 0,3 C 1,6 C
_ Min-Zeit 23:41 15:51 09:16 - 11:36 - - 23:41 00:26
Minimum _ 1,5 C 78 % 1001,9 hPa - 0,0 km/h (0 Bft) - - 0,2 C -0,6 C
_ Max-Zeit 15:21 11:01 00:01 04:21 00:26 - - 14:01 15:16
Maximum _ 8,9 C 92 % 1006,6 hPa 0,5 l/m 16,9 km/h
S-SW (3 Bft)
- - 6,1 C 8,7 C
Durchschnitt _ 4,3 C 88 % 1003,3 hPa #8,3 l/m 4,5 km/h (1 Bft) S-SW - 2,6 C 3,5 C
(c) by David Heller